sensor_id;sensor_type;location;lat;lon;timestamp;pressure;altitude;pressure_sealevel;temperature;humidity
77526;BME280;66627;29.424;-98.496;2023-04-01T00:01:33;98565.37;;;30.34;33.05
77526;BME280;66627;29.424;-98.496;2023-04-01T00:03:59;98569.81;;;30.37;33.30
77526;BME280;66627;29.424;-98.496;2023-04-01T00:06:25;98574.33;;;30.59;33.44
77526;BME280;66627;29.424;-98.496;2023-04-01T00:08:50;98582.73;;;30.59;33.39
77526;BME280;66627;29.424;-98.496;2023-04-01T00:11:16;98586.64;;;30.26;33.10
77526;BME280;66627;29.424;-98.496;2023-04-01T00:13:41;98586.66;;;29.34;34.49
77526;BME280;66627;29.424;-98.496;2023-04-01T00:16:06;98589.81;;;30.28;33.08
77526;BME280;66627;29.424;-98.496;2023-04-01T00:18:31;98591.03;;;30.44;33.36
77526;BME280;66627;29.424;-98.496;2023-04-01T00:20:57;98591.42;;;30.92;33.15
77526;BME280;66627;29.424;-98.496;2023-04-01T00:23:22;98594.94;;;31.05;33.41
77526;BME280;66627;29.424;-98.496;2023-04-01T00:25:47;98597.29;;;30.92;33.51
77526;BME280;66627;29.424;-98.496;2023-04-01T00:28:12;98600.06;;;30.61;33.81
77526;BME280;66627;29.424;-98.496;2023-04-01T00:30:38;98600.84;;;31.03;33.59
77526;BME280;66627;29.424;-98.496;2023-04-01T00:33:03;98600.62;;;30.64;34.15
77526;BME280;66627;29.424;-98.496;2023-04-01T00:35:28;98606.84;;;30.33;34.13
77526;BME280;66627;29.424;-98.496;2023-04-01T00:37:54;98611.01;;;30.45;34.58
77526;BME280;66627;29.424;-98.496;2023-04-01T00:40:26;98614.05;;;29.97;34.37
77526;BME280;66627;29.424;-98.496;2023-04-01T00:42:45;98614.28;;;29.91;34.81
77526;BME280;66627;29.424;-98.496;2023-04-01T00:45:26;98615.35;;;30.54;34.12
77526;BME280;66627;29.424;-98.496;2023-04-01T00:47:35;98617.08;;;29.82;34.83
77526;BME280;66627;29.424;-98.496;2023-04-01T00:50:00;98617.04;;;30.00;34.82
77526;BME280;66627;29.424;-98.496;2023-04-01T00:52:26;98619.74;;;30.04;34.68
77526;BME280;66627;29.424;-98.496;2023-04-01T00:54:54;98619.31;;;30.10;34.78
77526;BME280;66627;29.424;-98.496;2023-04-01T00:57:20;98621.01;;;29.87;35.01
77526;BME280;66627;29.424;-98.496;2023-04-01T00:59:45;98624.71;;;29.60;35.51
77526;BME280;66627;29.424;-98.496;2023-04-01T01:02:08;98629.59;;;29.22;35.83
77526;BME280;66627;29.424;-98.496;2023-04-01T01:04:33;98636.41;;;29.09;36.01
77526;BME280;66627;29.424;-98.496;2023-04-01T01:07:04;98641.10;;;29.15;35.89
77526;BME280;66627;29.424;-98.496;2023-04-01T01:09:31;98645.57;;;29.51;35.89
77526;BME280;66627;29.424;-98.496;2023-04-01T01:11:51;98651.72;;;28.99;36.69
77526;BME280;66627;29.424;-98.496;2023-04-01T01:14:25;98656.16;;;28.86;37.14
77526;BME280;66627;29.424;-98.496;2023-04-01T01:16:43;98666.31;;;29.01;37.26
77526;BME280;66627;29.424;-98.496;2023-04-01T01:19:10;98672.50;;;29.10;36.40
77526;BME280;66627;29.424;-98.496;2023-04-01T01:24:13;98673.27;;;28.33;37.69
77526;BME280;66627;29.424;-98.496;2023-04-01T01:26:34;98672.91;;;27.56;38.54
77526;BME280;66627;29.424;-98.496;2023-04-01T01:28:51;98677.93;;;27.42;39.26
77526;BME280;66627;29.424;-98.496;2023-04-01T01:31:15;98680.51;;;26.98;39.33
77526;BME280;66627;29.424;-98.496;2023-04-01T01:33:47;98684.76;;;27.23;39.47
77526;BME280;66627;29.424;-98.496;2023-04-01T01:36:05;98692.81;;;27.13;39.28
77526;BME280;66627;29.424;-98.496;2023-04-01T01:38:31;98703.79;;;26.90;40.03
77526;BME280;66627;29.424;-98.496;2023-04-01T01:40:53;98707.86;;;27.63;39.27
77526;BME280;66627;29.424;-98.496;2023-04-01T01:43:22;98717.75;;;27.21;40.06
77526;BME280;66627;29.424;-98.496;2023-04-01T01:45:46;98731.28;;;26.87;40.45
77526;BME280;66627;29.424;-98.496;2023-04-01T01:48:09;98738.32;;;27.14;40.65
77526;BME280;66627;29.424;-98.496;2023-04-01T01:50:34;98745.96;;;26.89;40.66
77526;BME280;66627;29.424;-98.496;2023-04-01T01:53:03;98750.80;;;27.25;40.03
77526;BME280;66627;29.424;-98.496;2023-04-01T01:55:28;98752.55;;;27.59;39.68
77526;BME280;66627;29.424;-98.496;2023-04-01T01:57:51;98754.47;;;28.20;39.60
77526;BME280;66627;29.424;-98.496;2023-04-01T02:00:19;98758.06;;;28.35;39.10
77526;BME280;66627;29.424;-98.496;2023-04-01T02:02:44;98763.83;;;27.77;39.31
77526;BME280;66627;29.424;-98.496;2023-04-01T02:05:09;98766.11;;;27.85;39.22
77526;BME280;66627;29.424;-98.496;2023-04-01T02:07:34;98772.33;;;27.56;40.11
77526;BME280;66627;29.424;-98.496;2023-04-01T02:09:58;98774.93;;;27.18;40.55
77526;BME280;66627;29.424;-98.496;2023-04-01T02:12:24;98781.10;;;27.81;39.76
77526;BME280;66627;29.424;-98.496;2023-04-01T02:14:53;98789.10;;;27.44;40.00
77526;BME280;66627;29.424;-98.496;2023-04-01T02:17:15;98801.09;;;26.86;41.09
77526;BME280;66627;29.424;-98.496;2023-04-01T02:19:43;98808.34;;;27.65;40.17
77526;BME280;66627;29.424;-98.496;2023-04-01T02:22:07;98811.81;;;27.24;40.65
77526;BME280;66627;29.424;-98.496;2023-04-01T02:24:32;98812.58;;;27.22;40.67
77526;BME280;66627;29.424;-98.496;2023-04-01T02:26:55;98817.31;;;27.18;40.90
77526;BME280;66627;29.424;-98.496;2023-04-01T02:29:23;98826.40;;;26.65;41.58
77526;BME280;66627;29.424;-98.496;2023-04-01T02:31:47;98832.24;;;27.29;41.40
77526;BME280;66627;29.424;-98.496;2023-04-01T02:34:12;98833.37;;;26.98;41.61
77526;BME280;66627;29.424;-98.496;2023-04-01T02:36:37;98835.27;;;26.84;42.06
77526;BME280;66627;29.424;-98.496;2023-04-01T02:39:03;98839.37;;;26.35;42.40
77526;BME280;66627;29.424;-98.496;2023-04-01T02:41:28;98840.19;;;26.82;41.87
77526;BME280;66627;29.424;-98.496;2023-04-01T02:43:53;98839.40;;;26.90;41.72
77526;BME280;66627;29.424;-98.496;2023-04-01T02:46:19;98846.14;;;27.16;41.60
77526;BME280;66627;29.424;-98.496;2023-04-01T02:48:45;98852.04;;;26.86;41.74
77526;BME280;66627;29.424;-98.496;2023-04-01T02:51:10;98860.72;;;27.05;41.78
77526;BME280;66627;29.424;-98.496;2023-04-01T02:53:35;98872.57;;;26.75;41.85
77526;BME280;66627;29.424;-98.496;2023-04-01T02:56:00;98883.28;;;26.18;43.15
77526;BME280;66627;29.424;-98.496;2023-04-01T02:58:26;98891.30;;;25.57;44.24
77526;BME280;66627;29.424;-98.496;2023-04-01T03:00:51;98895.94;;;26.35;43.63
77526;BME280;66627;29.424;-98.496;2023-04-01T03:03:17;98902.00;;;26.11;44.46
77526;BME280;66627;29.424;-98.496;2023-04-01T03:05:42;98902.62;;;26.11;43.68
77526;BME280;66627;29.424;-98.496;2023-04-01T03:08:07;98905.16;;;25.77;43.90
77526;BME280;66627;29.424;-98.496;2023-04-01T03:10:35;98903.72;;;26.15;43.73
77526;BME280;66627;29.424;-98.496;2023-04-01T03:12:58;98904.87;;;25.72;43.65
77526;BME280;66627;29.424;-98.496;2023-04-01T03:15:24;98908.12;;;25.06;44.96
77526;BME280;66627;29.424;-98.496;2023-04-01T03:17:49;98909.30;;;25.29;44.36
77526;BME280;66627;29.424;-98.496;2023-04-01T03:20:15;98914.06;;;25.25;44.73
77526;BME280;66627;29.424;-98.496;2023-04-01T03:22:40;98919.89;;;25.06;44.66
77526;BME280;66627;29.424;-98.496;2023-04-01T03:25:07;98925.94;;;25.29;44.50
77526;BME280;66627;29.424;-98.496;2023-04-01T03:27:31;98930.07;;;26.00;43.62
77526;BME280;66627;29.424;-98.496;2023-04-01T03:29:56;98931.17;;;25.38;44.00
77526;BME280;66627;29.424;-98.496;2023-04-01T03:32:22;98934.46;;;25.49;43.91
77526;BME280;66627;29.424;-98.496;2023-04-01T03:34:47;98936.87;;;26.27;43.74
77526;BME280;66627;29.424;-98.496;2023-04-01T03:37:13;98938.21;;;25.68;44.46
77526;BME280;66627;29.424;-98.496;2023-04-01T03:39:39;98941.71;;;24.84;44.81
77526;BME280;66627;29.424;-98.496;2023-04-01T03:42:04;98947.49;;;25.23;44.89
77526;BME280;66627;29.424;-98.496;2023-04-01T03:44:32;98956.54;;;25.29;44.43
77526;BME280;66627;29.424;-98.496;2023-04-01T03:46:55;98965.31;;;24.94;45.91
77526;BME280;66627;29.424;-98.496;2023-04-01T03:49:20;98966.20;;;24.84;45.49
77526;BME280;66627;29.424;-98.496;2023-04-01T03:51:45;98970.63;;;25.01;45.61
77526;BME280;66627;29.424;-98.496;2023-04-01T03:54:11;98979.94;;;25.39;44.80
77526;BME280;66627;29.424;-98.496;2023-04-01T03:56:36;98988.14;;;25.42;44.88
77526;BME280;66627;29.424;-98.496;2023-04-01T03:59:04;98991.76;;;25.30;44.97
77526;BME280;66627;29.424;-98.496;2023-04-01T04:01:27;98997.46;;;25.35;44.32
77526;BME280;66627;29.424;-98.496;2023-04-01T04:03:52;98999.98;;;25.47;43.82
77526;BME280;66627;29.424;-98.496;2023-04-01T04:06:18;99009.05;;;24.99;45.23
77526;BME280;66627;29.424;-98.496;2023-04-01T04:08:43;99010.09;;;24.59;45.98
77526;BME280;66627;29.424;-98.496;2023-04-01T04:11:08;99015.21;;;23.62;47.56
77526;BME280;66627;29.424;-98.496;2023-04-01T04:13:34;99016.43;;;24.34;46.87
77526;BME280;66627;29.424;-98.496;2023-04-01T04:15:59;99019.37;;;24.74;45.91
77526;BME280;66627;29.424;-98.496;2023-04-01T04:18:25;99025.97;;;25.20;45.69
77526;BME280;66627;29.424;-98.496;2023-04-01T04:20:50;99032.35;;;24.95;45.55
77526;BME280;66627;29.424;-98.496;2023-04-01T04:23:15;99039.66;;;25.12;44.77
77526;BME280;66627;29.424;-98.496;2023-04-01T04:25:42;99045.82;;;25.55;44.53
77526;BME280;66627;29.424;-98.496;2023-04-01T04:28:07;99048.13;;;25.50;43.87
77526;BME280;66627;29.424;-98.496;2023-04-01T04:30:33;99049.23;;;24.75;45.39
77526;BME280;66627;29.424;-98.496;2023-04-01T04:33:03;99048.35;;;25.07;44.44
77526;BME280;66627;29.424;-98.496;2023-04-01T04:35:24;99042.48;;;25.21;44.29
77526;BME280;66627;29.424;-98.496;2023-04-01T04:37:50;99044.35;;;25.19;44.53
77526;BME280;66627;29.424;-98.496;2023-04-01T04:40:15;99052.27;;;25.44;43.94
77526;BME280;66627;29.424;-98.496;2023-04-01T04:42:41;99054.26;;;25.22;44.09
77526;BME280;66627;29.424;-98.496;2023-04-01T04:45:07;99060.44;;;24.94;44.64
77526;BME280;66627;29.424;-98.496;2023-04-01T04:47:32;99063.89;;;25.32;44.53
77526;BME280;66627;29.424;-98.496;2023-04-01T04:49:57;99066.79;;;25.36;44.50
77526;BME280;66627;29.424;-98.496;2023-04-01T04:52:23;99073.38;;;25.46;44.42
77526;BME280;66627;29.424;-98.496;2023-04-01T04:54:47;99076.43;;;25.25;44.88
77526;BME280;66627;29.424;-98.496;2023-04-01T04:57:13;99089.70;;;24.18;46.61
77526;BME280;66627;29.424;-98.496;2023-04-01T04:59:40;99090.63;;;24.47;46.21
77526;BME280;66627;29.424;-98.496;2023-04-01T05:02:03;99095.66;;;24.17;46.78
77526;BME280;66627;29.424;-98.496;2023-04-01T05:04:29;99094.97;;;25.20;45.52
77526;BME280;66627;29.424;-98.496;2023-04-01T05:06:54;99097.76;;;24.24;47.13
77526;BME280;66627;29.424;-98.496;2023-04-01T05:09:19;99097.81;;;23.71;47.56
77526;BME280;66627;29.424;-98.496;2023-04-01T05:11:45;99088.05;;;24.34;46.76
77526;BME280;66627;29.424;-98.496;2023-04-01T05:14:13;99088.28;;;24.77;46.87
77526;BME280;66627;29.424;-98.496;2023-04-01T05:16:36;99087.63;;;24.51;47.23
77526;BME280;66627;29.424;-98.496;2023-04-01T05:19:01;99090.89;;;24.67;47.54
77526;BME280;66627;29.424;-98.496;2023-04-01T05:21:27;99099.98;;;24.51;47.02
77526;BME280;66627;29.424;-98.496;2023-04-01T05:23:52;99107.01;;;23.36;49.18
77526;BME280;66627;29.424;-98.496;2023-04-01T05:26:17;99104.87;;;23.20;49.97
77526;BME280;66627;29.424;-98.496;2023-04-01T05:28:43;99105.13;;;23.62;49.78
77526;BME280;66627;29.424;-98.496;2023-04-01T05:31:09;99104.29;;;24.03;48.96
77526;BME280;66627;29.424;-98.496;2023-04-01T05:33:35;99102.91;;;23.99;48.31
77526;BME280;66627;29.424;-98.496;2023-04-01T05:36:06;99102.20;;;23.75;49.35
77526;BME280;66627;29.424;-98.496;2023-04-01T05:38:25;99103.81;;;23.92;48.96
77526;BME280;66627;29.424;-98.496;2023-04-01T05:40:51;99108.17;;;23.72;49.55
77526;BME280;66627;29.424;-98.496;2023-04-01T05:43:16;99110.29;;;23.80;49.72
77526;BME280;66627;29.424;-98.496;2023-04-01T05:45:41;99109.29;;;23.31;50.53
77526;BME280;66627;29.424;-98.496;2023-04-01T05:48:07;99104.14;;;23.70;49.93
77526;BME280;66627;29.424;-98.496;2023-04-01T05:50:32;99099.31;;;23.55;50.22
77526;BME280;66627;29.424;-98.496;2023-04-01T05:52:58;99099.51;;;23.43;50.31
77526;BME280;66627;29.424;-98.496;2023-04-01T05:55:24;99103.43;;;23.97;50.15
77526;BME280;66627;29.424;-98.496;2023-04-01T05:57:49;99110.66;;;22.90;51.19
77526;BME280;66627;29.424;-98.496;2023-04-01T06:00:15;99111.20;;;23.69;50.47
77526;BME280;66627;29.424;-98.496;2023-04-01T06:02:40;99108.69;;;23.39;50.29
77526;BME280;66627;29.424;-98.496;2023-04-01T06:05:12;99109.11;;;23.71;50.95
77526;BME280;66627;29.424;-98.496;2023-04-01T06:07:30;99110.38;;;23.29;50.48
77526;BME280;66627;29.424;-98.496;2023-04-01T06:09:56;99114.90;;;23.92;49.47
77526;BME280;66627;29.424;-98.496;2023-04-01T06:12:34;99120.94;;;23.54;49.92
77526;BME280;66627;29.424;-98.496;2023-04-01T06:14:54;99123.81;;;24.02;49.46
77526;BME280;66627;29.424;-98.496;2023-04-01T06:17:23;99119.42;;;22.67;51.43
77526;BME280;66627;29.424;-98.496;2023-04-01T06:19:44;99117.18;;;22.99;50.58
77526;BME280;66627;29.424;-98.496;2023-04-01T06:22:16;99118.97;;;22.99;51.63
77526;BME280;66627;29.424;-98.496;2023-04-01T06:24:41;99117.55;;;22.78;51.54
77526;BME280;66627;29.424;-98.496;2023-04-01T06:27:00;99118.71;;;22.76;51.92
77526;BME280;66627;29.424;-98.496;2023-04-01T06:29:30;99124.46;;;22.89;51.30
77526;BME280;66627;29.424;-98.496;2023-04-01T06:34:19;99122.75;;;23.24;51.94
77526;BME280;66627;29.424;-98.496;2023-04-01T06:36:44;99123.72;;;23.41;51.23
77526;BME280;66627;29.424;-98.496;2023-04-01T06:39:12;99123.88;;;23.00;52.13
77526;BME280;66627;29.424;-98.496;2023-04-01T06:41:37;99127.46;;;22.83;52.42
77526;BME280;66627;29.424;-98.496;2023-04-01T06:43:59;99120.20;;;23.20;51.83
77526;BME280;66627;29.424;-98.496;2023-04-01T06:46:21;99115.35;;;23.01;51.90
77526;BME280;66627;29.424;-98.496;2023-04-01T06:48:53;99113.66;;;22.70;52.10
77526;BME280;66627;29.424;-98.496;2023-04-01T06:51:17;99115.94;;;22.31;53.39
77526;BME280;66627;29.424;-98.496;2023-04-01T06:53:38;99113.67;;;22.85;52.27
77526;BME280;66627;29.424;-98.496;2023-04-01T06:56:02;99119.20;;;22.30;53.22
77526;BME280;66627;29.424;-98.496;2023-04-01T06:58:25;99118.67;;;23.06;52.39
77526;BME280;66627;29.424;-98.496;2023-04-01T07:00:51;99120.25;;;22.83;52.39
77526;BME280;66627;29.424;-98.496;2023-04-01T07:03:21;99120.85;;;22.86;52.47
77526;BME280;66627;29.424;-98.496;2023-04-01T07:05:39;99119.37;;;22.47;52.88
77526;BME280;66627;29.424;-98.496;2023-04-01T07:08:10;99110.23;;;23.08;52.28
77526;BME280;66627;29.424;-98.496;2023-04-01T07:10:38;99105.84;;;22.96;52.52
77526;BME280;66627;29.424;-98.496;2023-04-01T07:12:58;99109.20;;;23.04;52.32
77526;BME280;66627;29.424;-98.496;2023-04-01T07:15:24;99112.04;;;22.95;52.48
77526;BME280;66627;29.424;-98.496;2023-04-01T07:17:50;99113.04;;;22.96;52.41
77526;BME280;66627;29.424;-98.496;2023-04-01T07:20:15;99110.14;;;23.08;52.25
77526;BME280;66627;29.424;-98.496;2023-04-01T07:22:40;99106.62;;;23.23;52.03
77526;BME280;66627;29.424;-98.496;2023-04-01T07:25:05;99095.68;;;22.74;53.16
77526;BME280;66627;29.424;-98.496;2023-04-01T07:27:27;99087.94;;;22.82;53.08
77526;BME280;66627;29.424;-98.496;2023-04-01T07:29:52;99085.41;;;22.78;52.93
77526;BME280;66627;29.424;-98.496;2023-04-01T07:32:24;99080.75;;;22.90;52.38
77526;BME280;66627;29.424;-98.496;2023-04-01T07:34:55;99071.73;;;21.89;53.22
77526;BME280;66627;29.424;-98.496;2023-04-01T07:37:14;99073.15;;;22.81;52.12
77526;BME280;66627;29.424;-98.496;2023-04-01T07:39:41;99070.56;;;21.82;53.77
77526;BME280;66627;29.424;-98.496;2023-04-01T07:42:04;99070.56;;;22.54;52.29
77526;BME280;66627;29.424;-98.496;2023-04-01T07:44:32;99075.34;;;22.55;52.15
77526;BME280;66627;29.424;-98.496;2023-04-01T07:47:01;99081.34;;;22.56;52.06
77526;BME280;66627;29.424;-98.496;2023-04-01T07:49:19;99087.63;;;22.35;52.28
77526;BME280;66627;29.424;-98.496;2023-04-01T07:51:46;99093.69;;;22.03;52.62
77526;BME280;66627;29.424;-98.496;2023-04-01T07:54:11;99090.64;;;22.31;51.81
77526;BME280;66627;29.424;-98.496;2023-04-01T07:56:36;99087.92;;;22.15;52.60
77526;BME280;66627;29.424;-98.496;2023-04-01T07:59:05;99086.66;;;22.14;51.86
77526;BME280;66627;29.424;-98.496;2023-04-01T08:01:27;99086.82;;;21.63;52.68
77526;BME280;66627;29.424;-98.496;2023-04-01T08:04:04;99087.64;;;21.97;51.86
77526;BME280;66627;29.424;-98.496;2023-04-01T08:06:20;99088.48;;;22.03;51.63
77526;BME280;66627;29.424;-98.496;2023-04-01T08:08:50;99092.35;;;22.67;51.44
77526;BME280;66627;29.424;-98.496;2023-04-01T08:11:12;99096.85;;;22.56;50.95
77526;BME280;66627;29.424;-98.496;2023-04-01T08:13:37;99096.14;;;22.64;50.11
77526;BME280;66627;29.424;-98.496;2023-04-01T08:16:01;99094.52;;;22.66;50.45
77526;BME280;66627;29.424;-98.496;2023-04-01T08:18:31;99099.85;;;21.95;50.86
77526;BME280;66627;29.424;-98.496;2023-04-01T08:20:50;99109.00;;;21.69;50.38
77526;BME280;66627;29.424;-98.496;2023-04-01T08:23:15;99127.76;;;20.55;53.63
77526;BME280;66627;29.424;-98.496;2023-04-01T08:25:41;99137.71;;;20.10;54.19
77526;BME280;66627;29.424;-98.496;2023-04-01T08:28:12;99141.30;;;20.87;52.95
77526;BME280;66627;29.424;-98.496;2023-04-01T08:30:37;99136.85;;;21.08;51.79
77526;BME280;66627;29.424;-98.496;2023-04-01T08:32:57;99143.34;;;20.77;51.45
77526;BME280;66627;29.424;-98.496;2023-04-01T08:35:27;99150.52;;;20.42;52.20
77526;BME280;66627;29.424;-98.496;2023-04-01T08:37:46;99158.13;;;20.15;52.20
77526;BME280;66627;29.424;-98.496;2023-04-01T08:42:47;99154.22;;;20.45;50.39
77526;BME280;66627;29.424;-98.496;2023-04-01T08:47:42;99147.18;;;20.61;47.19
77526;BME280;66627;29.424;-98.496;2023-04-01T08:52:30;99139.76;;;20.09;43.93
77526;BME280;66627;29.424;-98.496;2023-04-01T08:54:58;99130.78;;;20.26;42.94
77526;BME280;66627;29.424;-98.496;2023-04-01T08:57:17;99128.44;;;20.31;43.18
77526;BME280;66627;29.424;-98.496;2023-04-01T09:04:37;99119.11;;;19.92;41.08
77526;BME280;66627;29.424;-98.496;2023-04-01T09:07:02;99116.55;;;20.29;39.77
77526;BME280;66627;29.424;-98.496;2023-04-01T09:09:31;99127.15;;;20.17;40.59
77526;BME280;66627;29.424;-98.496;2023-04-01T09:14:23;99138.62;;;19.56;40.35
77526;BME280;66627;29.424;-98.496;2023-04-01T09:16:43;99137.47;;;19.93;39.67
77526;BME280;66627;29.424;-98.496;2023-04-01T09:19:08;99146.01;;;19.55;39.32
77526;BME280;66627;29.424;-98.496;2023-04-01T09:21:34;99151.77;;;19.09;40.22
77526;BME280;66627;29.424;-98.496;2023-04-01T09:28:45;99157.16;;;18.27;41.69
77526;BME280;66627;29.424;-98.496;2023-04-01T09:31:25;99152.33;;;17.52;41.56
77526;BME280;66627;29.424;-98.496;2023-04-01T09:36:03;99152.76;;;17.77;41.91
77526;BME280;66627;29.424;-98.496;2023-04-01T09:38:26;99159.77;;;18.10;42.07
77526;BME280;66627;29.424;-98.496;2023-04-01T09:40:51;99160.38;;;17.83;43.49
77526;BME280;66627;29.424;-98.496;2023-04-01T09:43:22;99159.13;;;17.70;42.71
77526;BME280;66627;29.424;-98.496;2023-04-01T09:45:46;99159.10;;;18.35;42.47
77526;BME280;66627;29.424;-98.496;2023-04-01T09:48:13;99162.50;;;18.59;41.58
77526;BME280;66627;29.424;-98.496;2023-04-01T09:50:34;99162.82;;;18.27;42.01
77526;BME280;66627;29.424;-98.496;2023-04-01T09:52:59;99169.87;;;18.40;41.23
77526;BME280;66627;29.424;-98.496;2023-04-01T09:58:04;99179.04;;;18.40;42.94
77526;BME280;66627;29.424;-98.496;2023-04-01T10:17:27;99203.91;;;17.59;37.67
77526;BME280;66627;29.424;-98.496;2023-04-01T10:27:00;99214.82;;;18.29;24.68
77526;BME280;66627;29.424;-98.496;2023-04-01T10:48:45;99231.90;;;18.63;24.16
77526;BME280;66627;29.424;-98.496;2023-04-01T10:51:12;99226.48;;;18.35;21.01
77526;BME280;66627;29.424;-98.496;2023-04-01T10:53:38;99230.47;;;19.29;22.71
77526;BME280;66627;29.424;-98.496;2023-04-01T11:00:57;99216.30;;;18.37;21.97
77526;BME280;66627;29.424;-98.496;2023-04-01T11:17:53;99246.03;;;19.42;19.46
77526;BME280;66627;29.424;-98.496;2023-04-01T11:22:40;99245.38;;;19.34;21.00
77526;BME280;66627;29.424;-98.496;2023-04-01T11:27:35;99249.54;;;19.86;19.67
77526;BME280;66627;29.424;-98.496;2023-04-01T11:30:01;99251.46;;;19.55;20.12
77526;BME280;66627;29.424;-98.496;2023-04-01T11:32:24;99259.22;;;19.47;20.72
77526;BME280;66627;29.424;-98.496;2023-04-01T11:34:47;99263.12;;;20.10;19.39
77526;BME280;66627;29.424;-98.496;2023-04-01T11:37:08;99268.31;;;20.13;19.94
77526;BME280;66627;29.424;-98.496;2023-04-01T11:39:33;99276.01;;;19.93;20.08
77526;BME280;66627;29.424;-98.496;2023-04-01T11:42:00;99280.60;;;19.78;20.37
77526;BME280;66627;29.424;-98.496;2023-04-01T11:44:18;99285.29;;;19.82;20.00
77526;BME280;66627;29.424;-98.496;2023-04-01T11:46:52;99285.67;;;19.79;20.85
77526;BME280;66627;29.424;-98.496;2023-04-01T11:51:47;99293.09;;;19.92;19.53
77526;BME280;66627;29.424;-98.496;2023-04-01T11:54:05;99298.55;;;20.35;20.54
77526;BME280;66627;29.424;-98.496;2023-04-01T11:56:31;99300.27;;;20.03;19.21
77526;BME280;66627;29.424;-98.496;2023-04-01T11:58:56;99300.71;;;19.67;19.43
77526;BME280;66627;29.424;-98.496;2023-04-01T12:01:24;99301.26;;;19.34;20.11
77526;BME280;66627;29.424;-98.496;2023-04-01T12:03:58;99300.20;;;19.46;20.36
77526;BME280;66627;29.424;-98.496;2023-04-01T12:06:12;99300.97;;;19.46;20.43
77526;BME280;66627;29.424;-98.496;2023-04-01T12:08:39;99305.77;;;19.75;21.27
77526;BME280;66627;29.424;-98.496;2023-04-01T12:10:58;99305.96;;;20.01;19.99
77526;BME280;66627;29.424;-98.496;2023-04-01T12:13:30;99312.86;;;19.88;19.64
77526;BME280;66627;29.424;-98.496;2023-04-01T12:15:59;99313.64;;;20.12;19.98
77526;BME280;66627;29.424;-98.496;2023-04-01T12:18:18;99320.89;;;20.06;20.59
77526;BME280;66627;29.424;-98.496;2023-04-01T12:20:44;99323.86;;;20.14;22.13
77526;BME280;66627;29.424;-98.496;2023-04-01T12:23:15;99327.72;;;19.90;22.56
77526;BME280;66627;29.424;-98.496;2023-04-01T12:25:39;99331.49;;;20.02;21.05
77526;BME280;66627;29.424;-98.496;2023-04-01T12:28:02;99330.73;;;19.48;22.95
77526;BME280;66627;29.424;-98.496;2023-04-01T12:32:49;99340.17;;;19.42;22.54
77526;BME280;66627;29.424;-98.496;2023-04-01T12:35:17;99343.07;;;19.54;21.13
77526;BME280;66627;29.424;-98.496;2023-04-01T12:37:39;99347.57;;;19.79;25.73
77526;BME280;66627;29.424;-98.496;2023-04-01T12:40:10;99348.69;;;20.13;21.66
77526;BME280;66627;29.424;-98.496;2023-04-01T12:45:03;99362.33;;;19.85;24.12
77526;BME280;66627;29.424;-98.496;2023-04-01T12:47:27;99366.61;;;19.07;24.58
77526;BME280;66627;29.424;-98.496;2023-04-01T12:49:52;99367.88;;;19.64;25.70
77526;BME280;66627;29.424;-98.496;2023-04-01T12:52:09;99378.41;;;19.40;26.44
77526;BME280;66627;29.424;-98.496;2023-04-01T12:57:08;99377.59;;;19.42;25.57
77526;BME280;66627;29.424;-98.496;2023-04-01T12:59:44;99379.79;;;19.71;24.79
77526;BME280;66627;29.424;-98.496;2023-04-01T13:02:00;99391.51;;;18.62;27.82
77526;BME280;66627;29.424;-98.496;2023-04-01T13:06:46;99390.15;;;19.00;27.78
77526;BME280;66627;29.424;-98.496;2023-04-01T13:09:12;99393.13;;;19.36;28.38
77526;BME280;66627;29.424;-98.496;2023-04-01T13:11:36;99394.60;;;18.38;28.60
77526;BME280;66627;29.424;-98.496;2023-04-01T13:14:04;99399.13;;;18.20;30.23
77526;BME280;66627;29.424;-98.496;2023-04-01T13:16:22;99401.36;;;18.82;28.74
77526;BME280;66627;29.424;-98.496;2023-04-01T13:18:54;99403.39;;;19.39;28.83
77526;BME280;66627;29.424;-98.496;2023-04-01T13:21:15;99397.97;;;20.00;27.12
77526;BME280;66627;29.424;-98.496;2023-04-01T13:23:45;99398.72;;;19.83;28.61
77526;BME280;66627;29.424;-98.496;2023-04-01T13:26:06;99398.14;;;19.80;28.89
77526;BME280;66627;29.424;-98.496;2023-04-01T13:28:25;99407.72;;;19.66;30.31
77526;BME280;66627;29.424;-98.496;2023-04-01T13:30:57;99415.30;;;18.69;29.66
77526;BME280;66627;29.424;-98.496;2023-04-01T13:33:20;99420.51;;;18.42;31.25
77526;BME280;66627;29.424;-98.496;2023-04-01T13:35:46;99419.43;;;19.74;30.00
77526;BME280;66627;29.424;-98.496;2023-04-01T13:38:23;99420.37;;;19.87;31.17
77526;BME280;66627;29.424;-98.496;2023-04-01T13:40:37;99422.19;;;20.11;28.62
77526;BME280;66627;29.424;-98.496;2023-04-01T13:42:59;99425.15;;;19.04;31.74
77526;BME280;66627;29.424;-98.496;2023-04-01T13:45:24;99425.60;;;19.58;30.87
77526;BME280;66627;29.424;-98.496;2023-04-01T13:47:55;99426.49;;;20.35;31.57
77526;BME280;66627;29.424;-98.496;2023-04-01T13:50:26;99430.24;;;20.98;32.43
77526;BME280;66627;29.424;-98.496;2023-04-01T13:52:50;99432.08;;;20.86;31.68
77526;BME280;66627;29.424;-98.496;2023-04-01T13:57:39;99426.19;;;20.73;30.72
77526;BME280;66627;29.424;-98.496;2023-04-01T14:04:49;99438.56;;;21.44;31.49
77526;BME280;66627;29.424;-98.496;2023-04-01T14:07:15;99436.97;;;21.80;31.00
77526;BME280;66627;29.424;-98.496;2023-04-01T14:09:47;99437.44;;;21.56;32.21
77526;BME280;66627;29.424;-98.496;2023-04-01T14:12:10;99437.12;;;21.34;31.28
77526;BME280;66627;29.424;-98.496;2023-04-01T14:14:33;99434.20;;;21.80;31.62
77526;BME280;66627;29.424;-98.496;2023-04-01T14:17:03;99435.55;;;21.50;30.81
77526;BME280;66627;29.424;-98.496;2023-04-01T14:19:23;99442.09;;;21.47;30.93
77526;BME280;66627;29.424;-98.496;2023-04-01T14:21:43;99448.14;;;21.59;32.14
77526;BME280;66627;29.424;-98.496;2023-04-01T14:24:20;99451.52;;;22.63;31.05
77526;BME280;66627;29.424;-98.496;2023-04-01T14:26:47;99450.04;;;23.26;25.88